sensor_id;sensor_type;location;lat;lon;timestamp;temperature;humidity
35240;DHT22;21376;50.954;4.716;2023-07-24T00:02:08;18.00;99.90
35240;DHT22;21376;50.954;4.716;2023-07-24T00:04:34;17.80;99.90
35240;DHT22;21376;50.954;4.716;2023-07-24T00:07:00;17.80;99.90
35240;DHT22;21376;50.954;4.716;2023-07-24T00:09:27;17.80;99.90
35240;DHT22;21376;50.954;4.716;2023-07-24T00:11:54;17.90;99.90
35240;DHT22;21376;50.954;4.716;2023-07-24T00:14:23;18.00;99.90
35240;DHT22;21376;50.954;4.716;2023-07-24T00:16:57;18.00;99.90
35240;DHT22;21376;50.954;4.716;2023-07-24T00:19:25;18.10;99.90
35240;DHT22;21376;50.954;4.716;2023-07-24T00:21:50;18.20;99.90
35240;DHT22;21376;50.954;4.716;2023-07-24T00:24:16;18.20;99.90
35240;DHT22;21376;50.954;4.716;2023-07-24T00:26:43;18.20;99.90
35240;DHT22;21376;50.954;4.716;2023-07-24T00:29:09;18.40;99.90
35240;DHT22;21376;50.954;4.716;2023-07-24T00:31:35;18.40;99.90
35240;DHT22;21376;50.954;4.716;2023-07-24T00:34:01;18.30;99.90
35240;DHT22;21376;50.954;4.716;2023-07-24T00:36:26;18.20;99.90
35240;DHT22;21376;50.954;4.716;2023-07-24T00:38:54;18.30;99.90
35240;DHT22;21376;50.954;4.716;2023-07-24T00:46:18;18.10;99.90
35240;DHT22;21376;50.954;4.716;2023-07-24T00:48:47;18.30;99.90
35240;DHT22;21376;50.954;4.716;2023-07-24T00:54:02;18.20;99.90
35240;DHT22;21376;50.954;4.716;2023-07-24T00:58:57;18.20;99.90
35240;DHT22;21376;50.954;4.716;2023-07-24T01:01:30;18.20;99.90
35240;DHT22;21376;50.954;4.716;2023-07-24T01:03:59;18.20;99.90
35240;DHT22;21376;50.954;4.716;2023-07-24T01:06:27;18.10;99.90
35240;DHT22;21376;50.954;4.716;2023-07-24T01:09:01;18.20;99.90
35240;DHT22;21376;50.954;4.716;2023-07-24T01:11:30;18.10;99.90
35240;DHT22;21376;50.954;4.716;2023-07-24T01:14:02;18.10;99.90
35240;DHT22;21376;50.954;4.716;2023-07-24T01:19:04;18.20;99.90
35240;DHT22;21376;50.954;4.716;2023-07-24T01:21:44;18.20;99.90
35240;DHT22;21376;50.954;4.716;2023-07-24T01:27:09;18.30;99.90
35240;DHT22;21376;50.954;4.716;2023-07-24T01:29:35;18.20;99.90
35240;DHT22;21376;50.954;4.716;2023-07-24T01:32:03;18.20;99.90
35240;DHT22;21376;50.954;4.716;2023-07-24T01:34:29;18.20;99.90
35240;DHT22;21376;50.954;4.716;2023-07-24T01:36:55;18.20;99.90
35240;DHT22;21376;50.954;4.716;2023-07-24T01:42:26;18.10;99.90
35240;DHT22;21376;50.954;4.716;2023-07-24T01:47:23;18.00;99.90
35240;DHT22;21376;50.954;4.716;2023-07-24T01:54:58;18.10;99.90
35240;DHT22;21376;50.954;4.716;2023-07-24T02:02:28;18.00;99.90
35240;DHT22;21376;50.954;4.716;2023-07-24T02:04:54;18.00;99.90
35240;DHT22;21376;50.954;4.716;2023-07-24T02:07:19;17.90;99.90
35240;DHT22;21376;50.954;4.716;2023-07-24T02:09:45;17.90;99.90
35240;DHT22;21376;50.954;4.716;2023-07-24T02:12:11;18.00;99.90
35240;DHT22;21376;50.954;4.716;2023-07-24T02:14:38;18.10;99.90
35240;DHT22;21376;50.954;4.716;2023-07-24T02:17:05;18.10;99.90
35240;DHT22;21376;50.954;4.716;2023-07-24T02:19:32;18.20;99.90
35240;DHT22;21376;50.954;4.716;2023-07-24T02:22:11;18.20;99.90
35240;DHT22;21376;50.954;4.716;2023-07-24T02:24:38;18.20;99.90
35240;DHT22;21376;50.954;4.716;2023-07-24T02:27:06;18.30;99.90
35240;DHT22;21376;50.954;4.716;2023-07-24T02:29:32;18.40;99.90
35240;DHT22;21376;50.954;4.716;2023-07-24T02:31:58;18.40;99.90
35240;DHT22;21376;50.954;4.716;2023-07-24T02:34:26;18.50;99.90
35240;DHT22;21376;50.954;4.716;2023-07-24T02:36:53;18.50;99.90
35240;DHT22;21376;50.954;4.716;2023-07-24T02:39:23;18.40;99.90
35240;DHT22;21376;50.954;4.716;2023-07-24T02:41:48;18.50;99.90
35240;DHT22;21376;50.954;4.716;2023-07-24T02:44:16;18.60;99.90
35240;DHT22;21376;50.954;4.716;2023-07-24T02:46:44;18.60;99.90
35240;DHT22;21376;50.954;4.716;2023-07-24T02:49:10;18.60;99.90
35240;DHT22;21376;50.954;4.716;2023-07-24T02:51:39;18.60;99.90
35240;DHT22;21376;50.954;4.716;2023-07-24T02:56:33;18.50;99.90
35240;DHT22;21376;50.954;4.716;2023-07-24T02:59:00;18.50;99.90
35240;DHT22;21376;50.954;4.716;2023-07-24T03:03:56;18.60;99.90
35240;DHT22;21376;50.954;4.716;2023-07-24T03:08:53;18.70;99.90
35240;DHT22;21376;50.954;4.716;2023-07-24T03:13:49;18.50;99.90
35240;DHT22;21376;50.954;4.716;2023-07-24T03:16:15;18.40;99.90
35240;DHT22;21376;50.954;4.716;2023-07-24T03:18:44;18.40;99.90
35240;DHT22;21376;50.954;4.716;2023-07-24T03:21:12;18.40;99.90
35240;DHT22;21376;50.954;4.716;2023-07-24T03:23:46;18.40;99.90
35240;DHT22;21376;50.954;4.716;2023-07-24T03:26:14;18.40;99.90
35240;DHT22;21376;50.954;4.716;2023-07-24T03:28:40;18.50;99.90
35240;DHT22;21376;50.954;4.716;2023-07-24T03:31:06;18.40;99.90
35240;DHT22;21376;50.954;4.716;2023-07-24T03:33:35;18.40;99.90
35240;DHT22;21376;50.954;4.716;2023-07-24T03:36:01;18.30;99.90
35240;DHT22;21376;50.954;4.716;2023-07-24T03:38:30;18.30;99.90
35240;DHT22;21376;50.954;4.716;2023-07-24T03:40:57;18.10;99.90
35240;DHT22;21376;50.954;4.716;2023-07-24T03:43:29;17.90;99.90
35240;DHT22;21376;50.954;4.716;2023-07-24T03:45:57;17.70;99.90
35240;DHT22;21376;50.954;4.716;2023-07-24T03:53:17;17.80;99.90
35240;DHT22;21376;50.954;4.716;2023-07-24T03:55:44;17.50;99.90
35240;DHT22;21376;50.954;4.716;2023-07-24T03:58:13;17.70;99.90
35240;DHT22;21376;50.954;4.716;2023-07-24T04:00:42;17.60;99.90
35240;DHT22;21376;50.954;4.716;2023-07-24T04:03:08;17.60;99.90
35240;DHT22;21376;50.954;4.716;2023-07-24T04:05:38;17.60;99.90
35240;DHT22;21376;50.954;4.716;2023-07-24T04:08:20;17.50;99.90
35240;DHT22;21376;50.954;4.716;2023-07-24T04:10:49;17.50;99.90
35240;DHT22;21376;50.954;4.716;2023-07-24T04:15:46;17.40;99.90
35240;DHT22;21376;50.954;4.716;2023-07-24T04:18:13;17.30;99.90
35240;DHT22;21376;50.954;4.716;2023-07-24T04:20:39;17.30;99.90
35240;DHT22;21376;50.954;4.716;2023-07-24T04:23:06;17.40;99.90
35240;DHT22;21376;50.954;4.716;2023-07-24T04:25:32;17.30;99.90
35240;DHT22;21376;50.954;4.716;2023-07-24T04:27:59;17.30;99.90
35240;DHT22;21376;50.954;4.716;2023-07-24T04:30:24;17.40;99.90
35240;DHT22;21376;50.954;4.716;2023-07-24T04:32:50;17.30;99.90
35240;DHT22;21376;50.954;4.716;2023-07-24T04:35:16;17.40;99.90
35240;DHT22;21376;50.954;4.716;2023-07-24T04:37:42;17.50;99.90
35240;DHT22;21376;50.954;4.716;2023-07-24T04:40:07;17.40;99.90
35240;DHT22;21376;50.954;4.716;2023-07-24T04:42:36;17.40;99.90
35240;DHT22;21376;50.954;4.716;2023-07-24T04:45:04;17.60;99.90
35240;DHT22;21376;50.954;4.716;2023-07-24T04:47:33;17.60;99.90
35240;DHT22;21376;50.954;4.716;2023-07-24T04:52:31;17.70;99.90
35240;DHT22;21376;50.954;4.716;2023-07-24T04:54:56;17.70;99.90
35240;DHT22;21376;50.954;4.716;2023-07-24T04:57:25;17.70;99.90
35240;DHT22;21376;50.954;4.716;2023-07-24T04:59:51;17.70;99.90
35240;DHT22;21376;50.954;4.716;2023-07-24T05:02:18;17.70;99.90
35240;DHT22;21376;50.954;4.716;2023-07-24T05:04:44;17.60;99.90
35240;DHT22;21376;50.954;4.716;2023-07-24T05:07:10;17.80;99.90
35240;DHT22;21376;50.954;4.716;2023-07-24T05:09:37;17.90;99.90
35240;DHT22;21376;50.954;4.716;2023-07-24T05:14:31;17.80;99.90
35240;DHT22;21376;50.954;4.716;2023-07-24T05:17:00;17.80;99.90
35240;DHT22;21376;50.954;4.716;2023-07-24T05:19:26;18.00;99.90
35240;DHT22;21376;50.954;4.716;2023-07-24T05:21:52;17.90;99.90
35240;DHT22;21376;50.954;4.716;2023-07-24T05:24:20;18.10;99.90
35240;DHT22;21376;50.954;4.716;2023-07-24T05:26:50;18.10;99.90
35240;DHT22;21376;50.954;4.716;2023-07-24T05:29:19;18.20;99.90
35240;DHT22;21376;50.954;4.716;2023-07-24T05:31:46;18.40;99.90
35240;DHT22;21376;50.954;4.716;2023-07-24T05:34:14;18.50;99.90
35240;DHT22;21376;50.954;4.716;2023-07-24T05:39:09;18.30;99.90
35240;DHT22;21376;50.954;4.716;2023-07-24T05:41:35;18.40;99.90
35240;DHT22;21376;50.954;4.716;2023-07-24T05:44:01;18.60;99.90
35240;DHT22;21376;50.954;4.716;2023-07-24T05:46:27;19.00;99.90
35240;DHT22;21376;50.954;4.716;2023-07-24T05:48:55;19.00;99.90
35240;DHT22;21376;50.954;4.716;2023-07-24T05:51:21;19.10;99.90
35240;DHT22;21376;50.954;4.716;2023-07-24T05:53:49;18.80;99.90
35240;DHT22;21376;50.954;4.716;2023-07-24T05:56:15;19.00;99.90
35240;DHT22;21376;50.954;4.716;2023-07-24T05:58:41;20.10;99.90
35240;DHT22;21376;50.954;4.716;2023-07-24T06:01:06;21.50;99.90
35240;DHT22;21376;50.954;4.716;2023-07-24T06:03:35;21.20;99.90
35240;DHT22;21376;50.954;4.716;2023-07-24T06:06:02;21.60;99.90
35240;DHT22;21376;50.954;4.716;2023-07-24T06:08:28;21.70;99.90
35240;DHT22;21376;50.954;4.716;2023-07-24T06:10:54;21.40;99.90
35240;DHT22;21376;50.954;4.716;2023-07-24T06:13:21;20.50;99.90
35240;DHT22;21376;50.954;4.716;2023-07-24T06:15:47;19.90;99.90
35240;DHT22;21376;50.954;4.716;2023-07-24T06:18:13;19.70;99.90
35240;DHT22;21376;50.954;4.716;2023-07-24T06:20:40;20.00;99.90
35240;DHT22;21376;50.954;4.716;2023-07-24T06:23:06;20.10;99.90
35240;DHT22;21376;50.954;4.716;2023-07-24T06:25:32;20.00;99.90
35240;DHT22;21376;50.954;4.716;2023-07-24T06:28:04;20.50;99.90
35240;DHT22;21376;50.954;4.716;2023-07-24T06:30:31;20.90;99.90
35240;DHT22;21376;50.954;4.716;2023-07-24T06:32:58;21.90;99.90
35240;DHT22;21376;50.954;4.716;2023-07-24T06:35:27;22.20;99.90
35240;DHT22;21376;50.954;4.716;2023-07-24T06:37:56;22.10;99.90
35240;DHT22;21376;50.954;4.716;2023-07-24T06:40:36;21.70;99.90
35240;DHT22;21376;50.954;4.716;2023-07-24T06:43:02;21.90;99.90
35240;DHT22;21376;50.954;4.716;2023-07-24T06:45:31;22.10;99.90
35240;DHT22;21376;50.954;4.716;2023-07-24T06:48:11;21.40;99.90
35240;DHT22;21376;50.954;4.716;2023-07-24T06:50:40;22.40;99.90
35240;DHT22;21376;50.954;4.716;2023-07-24T06:53:21;23.20;99.90
35240;DHT22;21376;50.954;4.716;2023-07-24T06:58:18;21.70;99.90
35240;DHT22;21376;50.954;4.716;2023-07-24T07:03:12;22.50;99.90
35240;DHT22;21376;50.954;4.716;2023-07-24T07:05:39;22.80;99.90
35240;DHT22;21376;50.954;4.716;2023-07-24T07:10:54;25.90;99.90
35240;DHT22;21376;50.954;4.716;2023-07-24T07:15:52;27.30;99.90
35240;DHT22;21376;50.954;4.716;2023-07-24T07:18:18;28.40;99.90
35240;DHT22;21376;50.954;4.716;2023-07-24T07:26:43;31.00;99.90
35240;DHT22;21376;50.954;4.716;2023-07-24T07:29:20;29.50;99.90
35240;DHT22;21376;50.954;4.716;2023-07-24T07:31:46;28.00;99.90
35240;DHT22;21376;50.954;4.716;2023-07-24T07:34:13;27.40;99.90
35240;DHT22;21376;50.954;4.716;2023-07-24T07:36:38;27.00;99.90
35240;DHT22;21376;50.954;4.716;2023-07-24T07:39:05;26.00;99.90
35240;DHT22;21376;50.954;4.716;2023-07-24T07:41:31;24.90;99.90
35240;DHT22;21376;50.954;4.716;2023-07-24T07:43:57;24.10;99.90
35240;DHT22;21376;50.954;4.716;2023-07-24T07:46:25;23.60;99.90
35240;DHT22;21376;50.954;4.716;2023-07-24T07:48:53;23.10;99.90
35240;DHT22;21376;50.954;4.716;2023-07-24T07:51:27;22.90;99.90
35240;DHT22;21376;50.954;4.716;2023-07-24T07:56:24;22.30;99.90
35240;DHT22;21376;50.954;4.716;2023-07-24T07:58:53;22.10;99.90
35240;DHT22;21376;50.954;4.716;2023-07-24T08:01:19;22.20;99.90
35240;DHT22;21376;50.954;4.716;2023-07-24T08:06:48;22.90;99.90
35240;DHT22;21376;50.954;4.716;2023-07-24T08:11:46;23.70;99.90
35240;DHT22;21376;50.954;4.716;2023-07-24T08:16:41;23.70;99.90
35240;DHT22;21376;50.954;4.716;2023-07-24T08:19:13;22.90;99.90
35240;DHT22;21376;50.954;4.716;2023-07-24T08:21:43;23.20;99.90
35240;DHT22;21376;50.954;4.716;2023-07-24T08:24:12;23.40;99.90
35240;DHT22;21376;50.954;4.716;2023-07-24T08:26:43;24.00;99.90
35240;DHT22;21376;50.954;4.716;2023-07-24T08:34:06;24.10;99.90
35240;DHT22;21376;50.954;4.716;2023-07-24T08:36:38;24.30;99.90
35240;DHT22;21376;50.954;4.716;2023-07-24T08:39:07;24.00;99.90
35240;DHT22;21376;50.954;4.716;2023-07-24T08:41:32;24.70;99.90
35240;DHT22;21376;50.954;4.716;2023-07-24T08:44:00;24.80;99.90
35240;DHT22;21376;50.954;4.716;2023-07-24T08:46:25;24.70;99.90
35240;DHT22;21376;50.954;4.716;2023-07-24T08:48:55;24.20;99.90
35240;DHT22;21376;50.954;4.716;2023-07-24T08:51:22;23.50;99.90
35240;DHT22;21376;50.954;4.716;2023-07-24T08:59:23;22.60;99.90
35240;DHT22;21376;50.954;4.716;2023-07-24T09:01:51;22.40;99.90
35240;DHT22;21376;50.954;4.716;2023-07-24T09:04:25;22.20;99.90
35240;DHT22;21376;50.954;4.716;2023-07-24T09:06:56;21.80;99.90
35240;DHT22;21376;50.954;4.716;2023-07-24T09:11:53;21.30;99.90
35240;DHT22;21376;50.954;4.716;2023-07-24T09:14:23;21.00;99.90
35240;DHT22;21376;50.954;4.716;2023-07-24T09:16:49;20.60;99.90
35240;DHT22;21376;50.954;4.716;2023-07-24T09:21:51;20.00;99.90
35240;DHT22;21376;50.954;4.716;2023-07-24T09:24:19;19.70;99.90
35240;DHT22;21376;50.954;4.716;2023-07-24T09:57:28;18.40;99.90
35240;DHT22;21376;50.954;4.716;2023-07-24T09:59:55;18.40;99.90
35240;DHT22;21376;50.954;4.716;2023-07-24T10:02:21;18.50;99.90
35240;DHT22;21376;50.954;4.716;2023-07-24T10:04:51;18.50;99.90
35240;DHT22;21376;50.954;4.716;2023-07-24T10:10:25;19.50;99.90
35240;DHT22;21376;50.954;4.716;2023-07-24T10:12:52;20.40;99.90
35240;DHT22;21376;50.954;4.716;2023-07-24T10:15:21;21.00;99.90
35240;DHT22;21376;50.954;4.716;2023-07-24T10:18:00;20.90;99.90
35240;DHT22;21376;50.954;4.716;2023-07-24T10:22:56;21.50;99.90
35240;DHT22;21376;50.954;4.716;2023-07-24T10:25:28;22.70;99.90
35240;DHT22;21376;50.954;4.716;2023-07-24T10:28:00;23.40;99.90
35240;DHT22;21376;50.954;4.716;2023-07-24T10:30:30;22.60;99.90
35240;DHT22;21376;50.954;4.716;2023-07-24T10:33:03;21.50;99.90
35240;DHT22;21376;50.954;4.716;2023-07-24T10:35:41;21.30;99.90
35240;DHT22;21376;50.954;4.716;2023-07-24T10:40:40;21.30;99.90
35240;DHT22;21376;50.954;4.716;2023-07-24T10:43:13;21.90;99.90
35240;DHT22;21376;50.954;4.716;2023-07-24T10:45:53;22.70;99.90
35240;DHT22;21376;50.954;4.716;2023-07-24T10:48:21;23.10;99.90
35240;DHT22;21376;50.954;4.716;2023-07-24T10:50:48;23.30;99.90
35240;DHT22;21376;50.954;4.716;2023-07-24T10:53:18;23.90;99.90
35240;DHT22;21376;50.954;4.716;2023-07-24T10:55:59;25.40;99.90
35240;DHT22;21376;50.954;4.716;2023-07-24T11:00:56;27.40;99.90
35240;DHT22;21376;50.954;4.716;2023-07-24T11:03:25;28.60;99.90
35240;DHT22;21376;50.954;4.716;2023-07-24T11:05:51;28.80;99.90
35240;DHT22;21376;50.954;4.716;2023-07-24T11:08:20;28.70;99.90
35240;DHT22;21376;50.954;4.716;2023-07-24T11:13:13;28.00;99.90
35240;DHT22;21376;50.954;4.716;2023-07-24T11:15:40;27.10;99.90
35240;DHT22;21376;50.954;4.716;2023-07-24T11:18:07;26.60;99.90
35240;DHT22;21376;50.954;4.716;2023-07-24T11:20:38;26.50;99.90
35240;DHT22;21376;50.954;4.716;2023-07-24T11:23:04;26.30;99.90
35240;DHT22;21376;50.954;4.716;2023-07-24T11:25:29;25.50;99.90
35240;DHT22;21376;50.954;4.716;2023-07-24T11:27:55;25.20;99.90
35240;DHT22;21376;50.954;4.716;2023-07-24T11:30:22;25.20;99.90
35240;DHT22;21376;50.954;4.716;2023-07-24T11:32:48;26.00;99.90
35240;DHT22;21376;50.954;4.716;2023-07-24T11:35:15;25.60;99.90
35240;DHT22;21376;50.954;4.716;2023-07-24T11:37:41;26.30;99.90
35240;DHT22;21376;50.954;4.716;2023-07-24T11:40:08;26.10;99.90
35240;DHT22;21376;50.954;4.716;2023-07-24T11:47:42;23.30;99.90
35240;DHT22;21376;50.954;4.716;2023-07-24T11:50:08;23.10;99.90
35240;DHT22;21376;50.954;4.716;2023-07-24T11:52:44;22.40;99.90
35240;DHT22;21376;50.954;4.716;2023-07-24T11:57:57;22.30;99.90
35240;DHT22;21376;50.954;4.716;2023-07-24T12:00:24;21.90;99.90
35240;DHT22;21376;50.954;4.716;2023-07-24T12:03:00;21.60;99.90
35240;DHT22;21376;50.954;4.716;2023-07-24T12:05:26;21.30;99.90
35240;DHT22;21376;50.954;4.716;2023-07-24T12:07:53;21.40;99.90
35240;DHT22;21376;50.954;4.716;2023-07-24T12:10:27;21.40;99.90
35240;DHT22;21376;50.954;4.716;2023-07-24T12:12:54;21.30;99.90
35240;DHT22;21376;50.954;4.716;2023-07-24T12:15:20;21.90;99.90
35240;DHT22;21376;50.954;4.716;2023-07-24T12:17:46;22.40;99.90
35240;DHT22;21376;50.954;4.716;2023-07-24T12:20:11;23.30;99.90
35240;DHT22;21376;50.954;4.716;2023-07-24T12:22:38;24.90;99.90
35240;DHT22;21376;50.954;4.716;2023-07-24T12:25:10;26.30;99.90
35240;DHT22;21376;50.954;4.716;2023-07-24T12:27:35;24.50;99.90
35240;DHT22;21376;50.954;4.716;2023-07-24T12:30:03;25.20;99.90
35240;DHT22;21376;50.954;4.716;2023-07-24T12:32:28;27.30;99.90
35240;DHT22;21376;50.954;4.716;2023-07-24T12:34:54;27.30;99.90
35240;DHT22;21376;50.954;4.716;2023-07-24T12:37:22;26.40;99.90
35240;DHT22;21376;50.954;4.716;2023-07-24T12:39:47;26.20;99.90
35240;DHT22;21376;50.954;4.716;2023-07-24T12:42:15;25.30;99.90
35240;DHT22;21376;50.954;4.716;2023-07-24T12:47:12;24.30;99.90
35240;DHT22;21376;50.954;4.716;2023-07-24T12:49:39;24.20;99.90
35240;DHT22;21376;50.954;4.716;2023-07-24T12:52:05;24.00;99.90
35240;DHT22;21376;50.954;4.716;2023-07-24T12:54:32;23.80;99.90
35240;DHT22;21376;50.954;4.716;2023-07-24T12:56:58;23.30;99.90
35240;DHT22;21376;50.954;4.716;2023-07-24T12:59:23;23.00;99.90
35240;DHT22;21376;50.954;4.716;2023-07-24T13:01:49;23.30;99.90
35240;DHT22;21376;50.954;4.716;2023-07-24T13:04:17;23.70;99.90
35240;DHT22;21376;50.954;4.716;2023-07-24T13:06:44;24.10;99.90
35240;DHT22;21376;50.954;4.716;2023-07-24T13:09:10;24.50;99.90
35240;DHT22;21376;50.954;4.716;2023-07-24T13:11:42;25.00;99.90
35240;DHT22;21376;50.954;4.716;2023-07-24T13:14:15;26.50;99.90
35240;DHT22;21376;50.954;4.716;2023-07-24T13:19:31;26.90;99.90
35240;DHT22;21376;50.954;4.716;2023-07-24T13:22:03;26.10;99.90
35240;DHT22;21376;50.954;4.716;2023-07-24T13:24:31;25.90;99.90
35240;DHT22;21376;50.954;4.716;2023-07-24T13:26:58;25.90;99.90
35240;DHT22;21376;50.954;4.716;2023-07-24T13:29:25;25.90;99.90
35240;DHT22;21376;50.954;4.716;2023-07-24T13:31:51;26.30;99.90
35240;DHT22;21376;50.954;4.716;2023-07-24T13:34:23;26.20;99.90
35240;DHT22;21376;50.954;4.716;2023-07-24T13:36:52;26.10;99.90
35240;DHT22;21376;50.954;4.716;2023-07-24T13:39:21;25.60;99.90
35240;DHT22;21376;50.954;4.716;2023-07-24T13:41:48;25.30;99.90
35240;DHT22;21376;50.954;4.716;2023-07-24T13:44:16;25.20;99.90
35240;DHT22;21376;50.954;4.716;2023-07-24T13:49:14;25.50;99.90
35240;DHT22;21376;50.954;4.716;2023-07-24T13:51:39;25.30;99.90
35240;DHT22;21376;50.954;4.716;2023-07-24T13:54:06;25.40;99.90
35240;DHT22;21376;50.954;4.716;2023-07-24T13:56:31;25.00;99.90
35240;DHT22;21376;50.954;4.716;2023-07-24T13:59:03;24.80;99.90
35240;DHT22;21376;50.954;4.716;2023-07-24T14:01:30;25.00;99.90
35240;DHT22;21376;50.954;4.716;2023-07-24T14:03:58;25.20;99.90
35240;DHT22;21376;50.954;4.716;2023-07-24T14:06:27;25.20;99.90
35240;DHT22;21376;50.954;4.716;2023-07-24T14:08:54;24.90;99.90
35240;DHT22;21376;50.954;4.716;2023-07-24T14:11:21;24.90;99.90
35240;DHT22;21376;50.954;4.716;2023-07-24T14:13:47;24.90;99.90
35240;DHT22;21376;50.954;4.716;2023-07-24T14:16:16;25.00;99.90
35240;DHT22;21376;50.954;4.716;2023-07-24T14:18:44;24.90;99.90
35240;DHT22;21376;50.954;4.716;2023-07-24T14:21:10;24.70;99.90
35240;DHT22;21376;50.954;4.716;2023-07-24T14:23:36;24.70;99.90
35240;DHT22;21376;50.954;4.716;2023-07-24T14:26:14;24.10;99.90
35240;DHT22;21376;50.954;4.716;2023-07-24T14:28:43;24.40;99.90
35240;DHT22;21376;50.954;4.716;2023-07-24T14:31:10;24.30;99.90
35240;DHT22;21376;50.954;4.716;2023-07-24T14:33:37;24.00;99.90
35240;DHT22;21376;50.954;4.716;2023-07-24T14:36:06;24.10;99.90
35240;DHT22;21376;50.954;4.716;2023-07-24T14:43:52;24.10;99.90
35240;DHT22;21376;50.954;4.716;2023-07-24T14:48:47;22.90;99.90
35240;DHT22;21376;50.954;4.716;2023-07-24T14:51:15;22.00;99.90
35240;DHT22;21376;50.954;4.716;2023-07-24T14:53:41;21.60;99.90
35240;DHT22;21376;50.954;4.716;2023-07-24T14:56:09;21.10;99.90
35240;DHT22;21376;50.954;4.716;2023-07-24T14:58:35;20.40;99.90
35240;DHT22;21376;50.954;4.716;2023-07-24T15:01:03;19.70;99.90
35240;DHT22;21376;50.954;4.716;2023-07-24T15:06:00;17.90;99.90
35240;DHT22;21376;50.954;4.716;2023-07-24T15:11:01;17.60;99.90
35240;DHT22;21376;50.954;4.716;2023-07-24T15:13:27;17.70;99.90
35240;DHT22;21376;50.954;4.716;2023-07-24T15:15:59;17.60;99.90
35240;DHT22;21376;50.954;4.716;2023-07-24T15:18:28;17.70;99.90
35240;DHT22;21376;50.954;4.716;2023-07-24T15:23:25;18.10;99.90
35240;DHT22;21376;50.954;4.716;2023-07-24T15:25:54;18.40;99.90
35240;DHT22;21376;50.954;4.716;2023-07-24T15:28:22;18.50;99.90
35240;DHT22;21376;50.954;4.716;2023-07-24T15:30:50;18.60;99.90
35240;DHT22;21376;50.954;4.716;2023-07-24T15:33:19;18.60;99.90
35240;DHT22;21376;50.954;4.716;2023-07-24T15:35:49;18.50;99.90
35240;DHT22;21376;50.954;4.716;2023-07-24T15:38:17;18.50;99.90
35240;DHT22;21376;50.954;4.716;2023-07-24T15:40:45;18.30;99.90
35240;DHT22;21376;50.954;4.716;2023-07-24T15:43:14;18.20;99.90
35240;DHT22;21376;50.954;4.716;2023-07-24T15:48:10;18.10;99.90
35240;DHT22;21376;50.954;4.716;2023-07-24T15:50:37;17.90;99.90
35240;DHT22;21376;50.954;4.716;2023-07-24T15:53:06;18.10;99.90
35240;DHT22;21376;50.954;4.716;2023-07-24T15:55:34;18.30;99.90
35240;DHT22;21376;50.954;4.716;2023-07-24T15:58:00;18.50;99.90
35240;DHT22;21376;50.954;4.716;2023-07-24T16:00:26;18.90;99.90
35240;DHT22;21376;50.954;4.716;2023-07-24T16:02:59;19.10;99.90
35240;DHT22;21376;50.954;4.716;2023-07-24T16:05:26;19.30;99.90
35240;DHT22;21376;50.954;4.716;2023-07-24T16:07:53;19.30;99.90
35240;DHT22;21376;50.954;4.716;2023-07-24T16:10:20;19.30;99.90
35240;DHT22;21376;50.954;4.716;2023-07-24T16:12:46;19.50;99.90
35240;DHT22;21376;50.954;4.716;2023-07-24T16:15:16;19.80;99.90
35240;DHT22;21376;50.954;4.716;2023-07-24T16:17:54;20.00;99.90
35240;DHT22;21376;50.954;4.716;2023-07-24T16:22:51;20.80;99.90
35240;DHT22;21376;50.954;4.716;2023-07-24T16:25:18;21.20;99.90
35240;DHT22;21376;50.954;4.716;2023-07-24T16:27:46;21.20;99.90
35240;DHT22;21376;50.954;4.716;2023-07-24T16:32:45;20.80;99.90
35240;DHT22;21376;50.954;4.716;2023-07-24T16:35:11;20.60;99.90
35240;DHT22;21376;50.954;4.716;2023-07-24T16:37:40;20.40;99.90
35240;DHT22;21376;50.954;4.716;2023-07-24T16:42:39;20.00;99.90
35240;DHT22;21376;50.954;4.716;2023-07-24T16:45:10;19.90;99.90
35240;DHT22;21376;50.954;4.716;2023-07-24T16:47:39;19.70;99.90
35240;DHT22;21376;50.954;4.716;2023-07-24T16:50:05;19.70;99.90
35240;DHT22;21376;50.954;4.716;2023-07-24T16:52:34;19.20;99.90
35240;DHT22;21376;50.954;4.716;2023-07-24T16:55:03;19.00;99.90
35240;DHT22;21376;50.954;4.716;2023-07-24T16:57:32;19.00;99.90
35240;DHT22;21376;50.954;4.716;2023-07-24T17:00:01;19.00;99.90
35240;DHT22;21376;50.954;4.716;2023-07-24T17:05:00;19.00;99.90
35240;DHT22;21376;50.954;4.716;2023-07-24T17:07:26;18.90;99.90
35240;DHT22;21376;50.954;4.716;2023-07-24T17:09:55;18.80;99.90
35240;DHT22;21376;50.954;4.716;2023-07-24T17:12:21;19.10;99.90
35240;DHT22;21376;50.954;4.716;2023-07-24T17:14:46;19.20;99.90
35240;DHT22;21376;50.954;4.716;2023-07-24T17:17:12;19.50;99.90
35240;DHT22;21376;50.954;4.716;2023-07-24T17:19:38;19.70;99.90
35240;DHT22;21376;50.954;4.716;2023-07-24T17:22:05;19.90;99.90
35240;DHT22;21376;50.954;4.716;2023-07-24T17:24:30;20.00;99.90
35240;DHT22;21376;50.954;4.716;2023-07-24T17:29:24;19.70;99.90
35240;DHT22;21376;50.954;4.716;2023-07-24T17:31:53;19.80;99.90
35240;DHT22;21376;50.954;4.716;2023-07-24T17:34:20;19.60;99.90
35240;DHT22;21376;50.954;4.716;2023-07-24T17:36:46;19.60;99.90
35240;DHT22;21376;50.954;4.716;2023-07-24T17:39:11;19.40;99.90
35240;DHT22;21376;50.954;4.716;2023-07-24T17:41:43;19.40;99.90
35240;DHT22;21376;50.954;4.716;2023-07-24T17:46:38;19.20;99.90
35240;DHT22;21376;50.954;4.716;2023-07-24T17:49:07;19.10;99.90
35240;DHT22;21376;50.954;4.716;2023-07-24T17:51:33;19.40;99.90
35240;DHT22;21376;50.954;4.716;2023-07-24T17:53:59;19.50;99.90
35240;DHT22;21376;50.954;4.716;2023-07-24T17:56:25;19.60;99.90
35240;DHT22;21376;50.954;4.716;2023-07-24T17:58:50;19.40;99.90
35240;DHT22;21376;50.954;4.716;2023-07-24T18:01:17;19.20;99.90
35240;DHT22;21376;50.954;4.716;2023-07-24T18:03:47;19.00;99.90
35240;DHT22;21376;50.954;4.716;2023-07-24T18:06:13;18.90;99.90
35240;DHT22;21376;50.954;4.716;2023-07-24T18:11:08;18.70;99.90
35240;DHT22;21376;50.954;4.716;2023-07-24T18:13:34;18.60;99.90
35240;DHT22;21376;50.954;4.716;2023-07-24T18:16:02;18.60;99.90
35240;DHT22;21376;50.954;4.716;2023-07-24T18:18:28;18.60;99.90
35240;DHT22;21376;50.954;4.716;2023-07-24T18:20:55;18.60;99.90
35240;DHT22;21376;50.954;4.716;2023-07-24T18:23:21;18.50;99.90
35240;DHT22;21376;50.954;4.716;2023-07-24T18:25:49;18.50;99.90
35240;DHT22;21376;50.954;4.716;2023-07-24T18:28:14;18.60;99.90
35240;DHT22;21376;50.954;4.716;2023-07-24T18:30:42;18.60;99.90
35240;DHT22;21376;50.954;4.716;2023-07-24T18:33:08;18.50;99.90
35240;DHT22;21376;50.954;4.716;2023-07-24T18:35:33;18.30;99.90
35240;DHT22;21376;50.954;4.716;2023-07-24T18:37:59;18.30;99.90
35240;DHT22;21376;50.954;4.716;2023-07-24T18:40:27;18.30;99.90
35240;DHT22;21376;50.954;4.716;2023-07-24T18:42:52;18.20;99.90
35240;DHT22;21376;50.954;4.716;2023-07-24T18:45:18;18.30;99.90
35240;DHT22;21376;50.954;4.716;2023-07-24T18:47:46;18.20;99.90